createdAt,value
2023-01-26T00:01:21.748Z,101938.75
2023-01-26T00:03:49.646Z,101940.25
2023-01-26T00:06:18.781Z,101945.03
2023-01-26T00:08:47.292Z,101943.59
2023-01-26T00:11:16.559Z,101923.25
2023-01-26T00:13:44.021Z,101929.19
2023-01-26T00:16:13.149Z,101920.50
2023-01-26T00:18:42.688Z,101917.19
2023-01-26T00:21:12.979Z,101931.31
2023-01-26T00:23:40.472Z,101927.72
2023-01-26T00:26:08.344Z,101929.00
2023-01-26T00:28:35.743Z,101921.97
2023-01-26T00:31:04.496Z,101920.38
2023-01-26T00:33:32.261Z,101915.69
2023-01-26T00:36:01.209Z,101918.84
2023-01-26T00:38:28.612Z,101923.19
2023-01-26T00:40:56.045Z,101926.78
2023-01-26T00:43:23.413Z,101910.75
2023-01-26T00:45:50.835Z,101916.19
2023-01-26T00:48:18.298Z,101921.81
2023-01-26T00:50:45.731Z,101912.22
2023-01-26T00:53:14.520Z,101917.66
2023-01-26T00:55:41.918Z,101915.00
2023-01-26T00:58:10.057Z,101908.72
2023-01-26T01:00:39.100Z,101906.97
2023-01-26T01:03:07.085Z,101903.44
2023-01-26T01:05:35.191Z,101892.97
2023-01-26T01:08:03.109Z,101895.13
2023-01-26T01:10:31.848Z,101894.22
2023-01-26T01:12:59.227Z,101882.75
2023-01-26T01:15:26.590Z,101886.56
2023-01-26T01:17:53.950Z,101888.75
2023-01-26T01:20:21.557Z,101878.94
2023-01-26T01:22:48.933Z,101877.88
2023-01-26T01:25:16.481Z,101876.06
2023-01-26T01:27:45.263Z,101876.47
2023-01-26T01:30:14.453Z,101871.72
2023-01-26T01:32:42.120Z,101883.13
2023-01-26T01:35:10.081Z,101871.53
2023-01-26T01:37:37.651Z,101877.47
2023-01-26T01:40:05.712Z,101871.03
2023-01-26T01:42:34.724Z,101871.66
2023-01-26T01:45:47.724Z,101875.19
2023-01-26T01:48:21.806Z,101871.03
2023-01-26T01:50:50.792Z,101875.53
2023-01-26T01:53:24.441Z,101874.84
2023-01-26T01:55:54.224Z,101865.31
2023-01-26T01:58:21.764Z,101863.38
2023-01-26T02:00:49.376Z,101868.88
2023-01-26T02:03:21.155Z,101866.97
2023-01-26T02:05:54.474Z,101858.81
2023-01-26T02:08:25.550Z,101858.72
2023-01-26T02:10:55.810Z,101857.22
2023-01-26T02:13:23.994Z,101850.41
2023-01-26T02:15:52.240Z,101843.44
2023-01-26T02:18:21.521Z,101846.69
2023-01-26T02:20:51.929Z,101849.22
2023-01-26T02:23:26.222Z,101841.09
2023-01-26T02:26:09.140Z,101848.94
2023-01-26T02:28:36.557Z,101838.28
2023-01-26T02:31:04.753Z,101836.03
2023-01-26T02:33:33.518Z,101844.13
2023-01-26T02:36:02.641Z,101829.88
2023-01-26T02:38:34.022Z,101819.94
2023-01-26T02:41:03.923Z,101822.22
2023-01-26T02:43:32.094Z,101828.78
2023-01-26T02:45:59.873Z,101826.09
2023-01-26T02:48:45.097Z,101832.41
2023-01-26T02:51:12.627Z,101832.97
2023-01-26T02:53:40.068Z,101826.19
2023-01-26T02:56:07.006Z,101824.06
2023-01-26T02:58:36.229Z,101828.59
2023-01-26T03:01:03.699Z,101816.44
2023-01-26T03:03:42.375Z,101810.25
2023-01-26T03:06:10.575Z,101815.81
2023-01-26T03:08:38.245Z,101811.16
2023-01-26T03:11:06.745Z,101808.00
2023-01-26T03:13:35.716Z,101818.81
2023-01-26T03:16:06.936Z,101817.22
2023-01-26T03:18:53.001Z,101808.56
2023-01-26T03:21:37.751Z,101807.06
2023-01-26T03:24:23.648Z,101805.41
2023-01-26T03:27:16.799Z,101801.19
2023-01-26T03:29:45.942Z,101805.56
2023-01-26T03:32:13.742Z,101805.06
2023-01-26T03:34:41.189Z,101804.44
2023-01-26T03:37:08.586Z,101800.69
2023-01-26T03:39:53.362Z,101801.94
2023-01-26T03:42:38.637Z,101810.88
2023-01-26T03:45:26.324Z,101807.13
2023-01-26T03:48:11.158Z,101801.94
2023-01-26T03:50:55.890Z,101802.81
2023-01-26T03:53:42.549Z,101812.63
2023-01-26T03:56:22.124Z,101802.34
2023-01-26T03:58:52.253Z,101806.97
2023-01-26T04:01:25.919Z,101813.88
2023-01-26T04:04:11.565Z,101808.59
2023-01-26T04:06:57.726Z,101810.00
2023-01-26T04:09:25.440Z,101814.22
2023-01-26T04:11:52.811Z,101813.59
2023-01-26T04:14:49.650Z,101799.69
2023-01-26T04:17:37.320Z,101802.63
2023-01-26T04:20:23.707Z,101799.81
2023-01-26T04:22:51.067Z,101797.91
2023-01-26T04:25:19.949Z,101794.97
2023-01-26T04:27:47.398Z,101798.03
2023-01-26T04:30:16.406Z,101790.47
2023-01-26T04:32:47.109Z,101792.69
2023-01-26T04:35:14.525Z,101792.75
2023-01-26T04:37:41.927Z,101782.47
2023-01-26T04:40:10.968Z,101787.75
2023-01-26T04:42:38.814Z,101782.47
2023-01-26T04:45:06.909Z,101782.72
2023-01-26T04:47:34.370Z,101785.84
2023-01-26T04:50:03.162Z,101781.94
2023-01-26T04:52:30.534Z,101772.72
2023-01-26T04:54:57.893Z,101779.38
2023-01-26T04:57:25.290Z,101769.28
2023-01-26T04:59:54.814Z,101769.91
2023-01-26T05:02:22.188Z,101761.25
2023-01-26T05:04:49.599Z,101766.25
2023-01-26T05:07:18.309Z,101766.91
2023-01-26T05:09:45.690Z,101762.41
2023-01-26T05:12:30.451Z,101765.56
2023-01-26T05:14:57.826Z,101758.25
2023-01-26T05:17:25.253Z,101760.03
2023-01-26T05:19:52.613Z,101754.81
2023-01-26T05:22:21.390Z,101754.13
2023-01-26T05:24:48.789Z,101756.25
2023-01-26T05:27:22.066Z,101756.09
2023-01-26T05:29:49.894Z,101753.88
2023-01-26T05:32:17.457Z,101766.25
2023-01-26T05:34:44.863Z,101760.88
2023-01-26T05:37:14.640Z,101767.41
2023-01-26T05:39:43.789Z,101758.66
2023-01-26T05:42:12.040Z,101754.22
2023-01-26T05:44:39.787Z,101756.88
2023-01-26T05:47:07.573Z,101757.22
2023-01-26T05:49:35.030Z,101757.53
2023-01-26T05:52:02.446Z,101769.78
2023-01-26T05:54:29.838Z,101764.84
2023-01-26T05:56:58.541Z,101769.13
2023-01-26T05:59:26.008Z,101766.47
2023-01-26T06:01:53.461Z,101777.06
2023-01-26T06:04:21.211Z,101768.19
2023-01-26T06:06:48.770Z,101769.78
2023-01-26T06:09:16.557Z,101764.41
2023-01-26T06:11:44.019Z,101761.06
2023-01-26T06:14:12.788Z,101771.00
2023-01-26T06:16:40.481Z,101768.59
2023-01-26T06:19:08.622Z,101769.31
2023-01-26T06:21:36.078Z,101772.75
2023-01-26T06:24:03.763Z,101771.88
2023-01-26T06:26:39.350Z,101784.50
2023-01-26T06:29:07.276Z,101778.91
2023-01-26T06:31:37.344Z,101786.97
2023-01-26T06:34:05.664Z,101784.53
2023-01-26T06:36:33.122Z,101780.53
2023-01-26T06:39:00.947Z,101785.38
2023-01-26T06:41:28.451Z,101783.88
2023-01-26T06:43:55.864Z,101785.22
2023-01-26T06:46:23.300Z,101794.66
2023-01-26T06:48:52.071Z,101792.59
2023-01-26T06:51:45.711Z,101788.03
2023-01-26T06:54:14.231Z,101793.81
2023-01-26T06:56:42.113Z,101788.28
2023-01-26T06:59:10.719Z,101788.13
2023-01-26T07:01:42.521Z,101798.75
2023-01-26T07:04:11.557Z,101795.63
2023-01-26T07:06:39.110Z,101792.31
2023-01-26T07:09:06.509Z,101799.28
2023-01-26T07:11:33.914Z,101802.63
2023-01-26T07:14:01.289Z,101796.63
2023-01-26T07:16:28.919Z,101797.81
2023-01-26T07:18:56.948Z,101804.63
2023-01-26T07:21:25.634Z,101802.28
2023-01-26T07:23:54.088Z,101801.28
2023-01-26T07:26:21.777Z,101799.31
2023-01-26T07:28:49.164Z,101800.63
2023-01-26T07:31:16.714Z,101801.63
2023-01-26T07:33:44.563Z,101808.22
2023-01-26T07:36:12.007Z,101809.22
2023-01-26T07:38:40.713Z,101798.03
2023-01-26T07:41:09.965Z,101796.47
2023-01-26T07:43:38.445Z,101792.19
2023-01-26T07:46:06.553Z,101795.44
2023-01-26T07:48:34.211Z,101795.16
2023-01-26T07:51:03.451Z,101792.72
2023-01-26T07:53:34.253Z,101795.31
2023-01-26T07:56:14.372Z,101798.91
2023-01-26T07:58:41.888Z,101791.22
2023-01-26T08:01:10.955Z,101797.31
2023-01-26T08:03:38.903Z,101799.28
2023-01-26T08:06:06.974Z,101802.91
2023-01-26T08:08:34.581Z,101800.91
2023-01-26T08:11:02.673Z,101801.47
2023-01-26T08:13:35.779Z,101800.22
2023-01-26T08:16:05.404Z,101796.13
2023-01-26T08:18:32.906Z,101803.50
2023-01-26T08:21:00.442Z,101807.84
2023-01-26T08:23:28.090Z,101823.25
2023-01-26T08:25:55.544Z,101814.53
2023-01-26T08:28:23.343Z,101807.91
2023-01-26T08:30:52.127Z,101811.00
2023-01-26T08:33:19.554Z,101813.03
2023-01-26T08:35:46.935Z,101812.38
2023-01-26T08:38:14.291Z,101802.13
2023-01-26T08:40:42.332Z,101805.50
2023-01-26T08:43:09.690Z,101798.47
2023-01-26T08:45:37.107Z,101796.34
2023-01-26T08:48:06.864Z,101803.47
2023-01-26T08:50:34.194Z,101804.22
2023-01-26T08:53:01.590Z,101805.09
2023-01-26T08:55:29.610Z,101805.34
2023-01-26T08:57:57.552Z,101808.63
2023-01-26T09:00:25.649Z,101812.13
2023-01-26T09:02:59.493Z,101816.47
2023-01-26T09:05:28.826Z,101814.72
2023-01-26T09:07:56.240Z,101819.47
2023-01-26T09:10:23.673Z,101818.75
2023-01-26T09:12:51.310Z,101820.97
2023-01-26T09:15:18.687Z,101816.09
2023-01-26T09:17:49.163Z,101817.03
2023-01-26T09:20:16.835Z,101821.19
2023-01-26T09:22:45.775Z,101818.53
2023-01-26T09:25:13.681Z,101823.44
2023-01-26T09:27:41.368Z,101833.97
2023-01-26T09:30:10.146Z,101824.81
2023-01-26T09:32:37.683Z,101827.00
2023-01-26T09:35:05.813Z,101822.66
2023-01-26T09:37:33.159Z,101831.75
2023-01-26T09:40:01.874Z,101828.13
2023-01-26T09:42:50.858Z,101829.81
2023-01-26T09:45:25.551Z,101824.19
2023-01-26T09:48:03.035Z,101819.53
2023-01-26T09:50:32.586Z,101820.25
2023-01-26T09:53:03.857Z,101819.41
2023-01-26T09:55:32.557Z,101817.53
2023-01-26T09:58:02.063Z,101809.41
2023-01-26T10:00:32.242Z,101807.47
2023-01-26T10:03:14.863Z,101800.50
2023-01-26T10:05:46.565Z,101802.97
2023-01-26T10:08:15.964Z,101799.84
2023-01-26T10:10:49.278Z,101803.06
2023-01-26T10:13:17.350Z,101801.19
2023-01-26T10:15:46.744Z,101787.88
2023-01-26T10:18:18.845Z,101788.00
2023-01-26T10:20:49.013Z,101780.13
2023-01-26T10:23:18.497Z,101782.91
2023-01-26T10:25:47.789Z,101775.84
2023-01-26T10:28:16.633Z,101774.69
2023-01-26T10:30:45.863Z,101776.53
2023-01-26T10:33:21.525Z,101775.84
2023-01-26T10:35:48.923Z,101769.38
2023-01-26T10:38:41.191Z,101771.53
2023-01-26T10:41:23.214Z,101766.94
2023-01-26T10:43:53.041Z,101752.63
2023-01-26T10:46:26.163Z,101759.00
2023-01-26T10:48:54.255Z,101770.94
2023-01-26T10:51:26.325Z,101758.13
2023-01-26T10:54:21.430Z,101763.41
2023-01-26T10:56:52.510Z,101762.13
2023-01-26T10:59:26.450Z,101763.13
2023-01-26T11:01:55.856Z,101762.78
2023-01-26T11:04:23.545Z,101756.03
2023-01-26T11:06:51.150Z,101762.97
2023-01-26T11:09:20.843Z,101755.00
2023-01-26T11:12:03.676Z,101757.28
2023-01-26T11:14:32.342Z,101752.50
2023-01-26T11:17:06.106Z,101755.44
2023-01-26T11:19:52.104Z,101755.28
2023-01-26T11:22:21.809Z,101755.13
2023-01-26T11:24:52.798Z,101755.22
2023-01-26T11:27:29.798Z,101747.41
2023-01-26T11:30:16.938Z,101757.63
2023-01-26T11:32:48.404Z,101743.00
2023-01-26T11:35:31.010Z,101746.03
2023-01-26T11:38:04.573Z,101741.94
2023-01-26T11:40:37.816Z,101733.78
2023-01-26T11:43:34.745Z,101733.44
2023-01-26T11:46:08.993Z,101720.53
2023-01-26T11:48:45.053Z,101713.78
2023-01-26T11:51:17.339Z,101720.38
2023-01-26T11:54:02.703Z,101718.09
2023-01-26T11:56:38.240Z,101710.97
2023-01-26T11:59:11.173Z,101711.81
2023-01-26T12:01:41.206Z,101712.44
2023-01-26T12:04:15.976Z,101710.78
2023-01-26T12:06:45.494Z,101711.13
2023-01-26T12:09:18.866Z,101702.19
2023-01-26T12:11:51.114Z,101712.97
2023-01-26T12:14:23.498Z,101697.19
2023-01-26T12:17:16.839Z,101689.09
2023-01-26T12:19:50.320Z,101689.78
2023-01-26T12:22:21.841Z,101688.59
2023-01-26T12:25:17.382Z,101690.41
2023-01-26T12:27:44.431Z,101686.13
2023-01-26T12:30:25.715Z,101673.00
2023-01-26T12:32:53.570Z,101671.69
2023-01-26T12:35:29.413Z,101660.09
2023-01-26T12:38:16.710Z,101663.25
2023-01-26T12:40:53.153Z,101673.53
2023-01-26T12:43:26.955Z,101674.84
2023-01-26T12:45:58.650Z,101673.19
2023-01-26T12:48:34.428Z,101669.75
2023-01-26T12:51:05.451Z,101673.53
2023-01-26T12:53:37.930Z,101673.53
2023-01-26T12:56:11.190Z,101668.56
2023-01-26T12:58:40.418Z,101657.44
2023-01-26T13:01:13.328Z,101662.75
2023-01-26T13:03:42.099Z,101652.31
2023-01-26T13:06:20.827Z,101657.13
2023-01-26T13:08:53.642Z,101657.28
2023-01-26T13:11:46.717Z,101657.75
2023-01-26T13:14:31.789Z,101657.94
2023-01-26T13:17:42.364Z,101660.78
2023-01-26T13:20:41.180Z,101661.94
2023-01-26T13:23:52.404Z,101659.28
2023-01-26T13:26:44.535Z,101664.13
2023-01-26T13:29:31.650Z,101664.44
2023-01-26T13:32:02.588Z,101667.25
2023-01-26T13:34:33.405Z,101665.09
2023-01-26T13:37:06.083Z,101666.72
2023-01-26T13:39:36.353Z,101671.56
2023-01-26T13:42:11.406Z,101674.22
2023-01-26T13:44:41.428Z,101677.34
2023-01-26T13:47:12.989Z,101677.00
2023-01-26T13:49:41.685Z,101676.69
2023-01-26T13:52:17.697Z,101680.50
2023-01-26T13:54:45.580Z,101688.28
2023-01-26T13:57:14.282Z,101693.94
2023-01-26T13:59:50.181Z,101693.75
2023-01-26T14:02:27.151Z,101685.13
2023-01-26T14:04:57.902Z,101683.47
2023-01-26T14:07:27.668Z,101680.03
2023-01-26T14:09:56.978Z,101690.81
2023-01-26T14:12:25.686Z,101684.00
2023-01-26T14:14:54.846Z,101683.66
2023-01-26T14:17:29.184Z,101681.16
2023-01-26T14:19:57.053Z,101681.66
2023-01-26T14:22:24.942Z,101683.66
2023-01-26T14:24:53.475Z,101680.69
2023-01-26T14:27:30.816Z,101684.16
2023-01-26T14:29:59.074Z,101682.19
2023-01-26T14:32:29.695Z,101688.31
2023-01-26T14:34:58.837Z,101688.81
2023-01-26T14:37:26.752Z,101690.13
2023-01-26T14:40:19.526Z,101688.28
2023-01-26T14:42:47.374Z,101695.44
2023-01-26T14:45:15.110Z,101680.34
2023-01-26T14:47:45.200Z,101687.63
2023-01-26T14:50:15.704Z,101680.03
2023-01-26T14:52:45.920Z,101694.59
2023-01-26T14:55:17.725Z,101683.16
2023-01-26T14:57:45.076Z,101695.59
2023-01-26T15:00:22.459Z,101691.63
2023-01-26T15:02:53.546Z,101701.94
2023-01-26T15:05:22.987Z,101708.72
2023-01-26T15:07:52.567Z,101703.56
2023-01-26T15:10:29.421Z,101704.06
2023-01-26T15:12:58.996Z,101708.03
2023-01-26T15:15:28.969Z,101706.38
2023-01-26T15:18:06.726Z,101705.72
2023-01-26T15:20:39.392Z,101714.03
2023-01-26T15:23:21.341Z,101719.97
2023-01-26T15:25:48.751Z,101722.97
2023-01-26T15:28:18.425Z,101716.81
2023-01-26T15:30:48.950Z,101714.31
2023-01-26T15:33:40.434Z,101714.00
2023-01-26T15:36:27.806Z,101720.63
2023-01-26T15:39:00.966Z,101722.91
2023-01-26T15:41:28.935Z,101720.94
2023-01-26T15:43:56.308Z,101722.94
2023-01-26T15:46:23.838Z,101721.47
2023-01-26T15:48:52.728Z,101724.28
2023-01-26T15:51:20.199Z,101719.28
2023-01-26T15:53:47.574Z,101716.94
2023-01-26T15:56:16.492Z,101714.16
2023-01-26T15:58:44.284Z,101717.59
2023-01-26T16:01:15.748Z,101716.78
2023-01-26T16:03:43.135Z,101723.75
2023-01-26T16:06:22.370Z,101718.28
2023-01-26T16:08:50.035Z,101715.81
2023-01-26T16:11:18.011Z,101716.97
2023-01-26T16:13:57.300Z,101715.28
2023-01-26T16:16:30.071Z,101712.69
2023-01-26T16:18:57.601Z,101715.47
2023-01-26T16:21:28.680Z,101720.81
2023-01-26T16:23:56.068Z,101723.78
2023-01-26T16:26:23.633Z,101717.13
2023-01-26T16:28:50.984Z,101714.66
2023-01-26T16:31:20.578Z,101718.81
2023-01-26T16:33:48.644Z,101714.66
2023-01-26T16:36:17.109Z,101713.97
2023-01-26T16:38:46.669Z,101729.91
2023-01-26T16:41:16.473Z,101724.94
2023-01-26T16:43:44.114Z,101726.38
2023-01-26T16:46:11.931Z,101724.94
2023-01-26T16:48:40.320Z,101724.25
2023-01-26T16:51:17.989Z,101736.84
2023-01-26T16:53:47.192Z,101736.81
2023-01-26T16:56:16.417Z,101734.38
2023-01-26T16:58:43.858Z,101743.22
2023-01-26T17:01:18.292Z,101745.31
2023-01-26T17:03:45.914Z,101738.88
2023-01-26T17:06:13.383Z,101737.06
2023-01-26T17:08:41.189Z,101740.56
2023-01-26T17:11:13.976Z,101742.53
2023-01-26T17:13:41.295Z,101744.22
2023-01-26T17:16:12.565Z,101749.34
2023-01-26T17:18:39.978Z,101745.53
2023-01-26T17:21:07.481Z,101750.50
2023-01-26T17:23:37.293Z,101754.81
2023-01-26T17:26:04.953Z,101758.13
2023-01-26T17:28:33.656Z,101762.09
2023-01-26T17:31:01.610Z,101766.09
2023-01-26T17:33:29.591Z,101760.28
2023-01-26T17:36:00.574Z,101759.44
2023-01-26T17:38:28.078Z,101768.91
2023-01-26T17:40:56.469Z,101772.88
2023-01-26T17:43:24.109Z,101775.22
2023-01-26T17:46:01.912Z,101780.00
2023-01-26T17:48:29.875Z,101781.97
2023-01-26T17:50:57.710Z,101776.00
2023-01-26T17:53:25.395Z,101776.53
2023-01-26T17:55:53.203Z,101779.69
2023-01-26T17:58:20.612Z,101795.59
2023-01-26T18:00:48.129Z,101792.59
2023-01-26T18:03:17.387Z,101787.13
2023-01-26T18:05:51.499Z,101798.59
2023-01-26T18:08:19.410Z,101784.63
2023-01-26T18:10:47.108Z,101792.75
2023-01-26T18:13:15.162Z,101798.53
2023-01-26T18:15:52.304Z,101803.19
2023-01-26T18:18:21.598Z,101797.03
2023-01-26T18:20:49.115Z,101799.06
2023-01-26T18:23:16.516Z,101787.63
2023-01-26T18:25:44.313Z,101795.25
2023-01-26T18:28:11.710Z,101799.59
2023-01-26T18:30:40.129Z,101796.63
2023-01-26T18:33:08.387Z,101788.63
2023-01-26T18:35:37.238Z,101788.31
2023-01-26T18:38:04.735Z,101786.47
2023-01-26T18:40:32.186Z,101789.63
2023-01-26T18:42:59.662Z,101786.00
2023-01-26T18:45:27.206Z,101793.28
2023-01-26T18:47:54.651Z,101784.97
2023-01-26T18:50:22.193Z,101791.63
2023-01-26T18:52:52.276Z,101795.09
2023-01-26T18:55:20.194Z,101795.78
2023-01-26T18:57:49.311Z,101803.75
2023-01-26T19:00:17.469Z,101794.63
2023-01-26T19:02:44.991Z,101803.88
2023-01-26T19:05:12.867Z,101796.78
2023-01-26T19:07:41.140Z,101794.28
2023-01-26T19:10:11.238Z,101809.38
2023-01-26T19:12:38.573Z,101797.94
2023-01-26T19:15:07.501Z,101810.69
2023-01-26T19:17:35.053Z,101798.94
2023-01-26T19:20:02.646Z,101807.88
2023-01-26T19:22:30.037Z,101795.63
2023-01-26T19:24:58.035Z,101801.44
2023-01-26T19:27:26.753Z,101803.09
2023-01-26T19:29:54.308Z,101803.56
2023-01-26T19:32:21.650Z,101806.53
2023-01-26T19:34:49.035Z,101807.88
2023-01-26T19:37:16.560Z,101810.53
2023-01-26T19:39:43.901Z,101807.22
2023-01-26T19:42:11.258Z,101812.19
2023-01-26T19:44:39.921Z,101810.22
2023-01-26T19:47:07.331Z,101808.84
2023-01-26T19:49:34.688Z,101807.38
2023-01-26T19:52:04.275Z,101810.19
2023-01-26T19:54:31.670Z,101802.59
2023-01-26T19:56:59.026Z,101813.50
2023-01-26T19:59:27.293Z,101816.19
2023-01-26T20:01:56.547Z,101814.34
2023-01-26T20:04:23.964Z,101810.22
2023-01-26T20:06:51.412Z,101813.53
2023-01-26T20:09:18.759Z,101815.84
2023-01-26T20:11:46.227Z,101812.16
2023-01-26T20:14:13.610Z,101809.88
2023-01-26T20:16:41.796Z,101815.72
2023-01-26T20:19:11.915Z,101817.69
2023-01-26T20:21:40.226Z,101813.38
2023-01-26T20:24:09.128Z,101816.53
2023-01-26T20:26:37.181Z,101816.69
2023-01-26T20:29:04.686Z,101815.03
2023-01-26T20:31:32.961Z,101812.53
2023-01-26T20:34:03.088Z,101823.84
2023-01-26T20:36:32.808Z,101824.16
2023-01-26T20:39:01.181Z,101822.16
2023-01-26T20:41:30.049Z,101814.56
2023-01-26T20:44:00.879Z,101829.31
2023-01-26T20:46:29.467Z,101823.84
2023-01-26T20:48:57.245Z,101827.66
2023-01-26T20:51:29.277Z,101826.50
2023-01-26T20:53:58.451Z,101820.34
2023-01-26T20:56:26.305Z,101818.38
2023-01-26T20:58:55.181Z,101830.66
2023-01-26T21:01:23.679Z,101827.19
2023-01-26T21:03:51.450Z,101837.44
2023-01-26T21:06:20.003Z,101833.47
2023-01-26T21:08:47.734Z,101831.16
2023-01-26T21:11:18.094Z,101828.47
2023-01-26T21:13:45.619Z,101831.16
2023-01-26T21:16:14.515Z,101837.13
2023-01-26T21:18:42.435Z,101837.59
2023-01-26T21:21:12.315Z,101838.13
2023-01-26T21:23:39.769Z,101839.44
2023-01-26T21:26:10.715Z,101831.47
2023-01-26T21:28:39.604Z,101834.13
2023-01-26T21:31:08.722Z,101829.81
2023-01-26T21:33:38.230Z,101825.53
2023-01-26T21:36:07.234Z,101826.03
2023-01-26T21:38:36.056Z,101826.81
2023-01-26T21:41:25.281Z,101829.16
2023-01-26T21:43:56.789Z,101827.31
2023-01-26T21:46:24.466Z,101823.69
2023-01-26T21:48:51.906Z,101822.84
2023-01-26T21:51:37.813Z,101826.50
2023-01-26T21:54:06.832Z,101832.81
2023-01-26T21:56:34.375Z,101828.84
2023-01-26T21:59:04.611Z,101829.81
2023-01-26T22:01:33.579Z,101830.16
2023-01-26T22:04:02.514Z,101836.28
2023-01-26T22:06:30.831Z,101833.81
2023-01-26T22:08:59.097Z,101837.44
2023-01-26T22:11:27.091Z,101830.97
2023-01-26T22:13:54.860Z,101838.47
2023-01-26T22:16:24.150Z,101837.47
2023-01-26T22:18:51.737Z,101836.47
2023-01-26T22:21:19.583Z,101838.47
2023-01-26T22:23:47.288Z,101834.81
2023-01-26T22:26:16.355Z,101836.81
2023-01-26T22:28:49.973Z,101841.63
2023-01-26T22:31:19.605Z,101844.28
2023-01-26T22:33:48.463Z,101838.78
2023-01-26T22:36:16.946Z,101834.47
2023-01-26T22:38:44.565Z,101841.28
2023-01-26T22:41:14.498Z,101842.13
2023-01-26T22:43:42.221Z,101846.75
2023-01-26T22:46:11.435Z,101841.44
2023-01-26T22:48:39.134Z,101839.13
2023-01-26T22:51:12.046Z,101847.94
2023-01-26T22:53:39.884Z,101847.59
2023-01-26T22:56:08.508Z,101842.44
2023-01-26T22:58:44.787Z,101842.94
2023-01-26T23:01:23.697Z,101843.75
2023-01-26T23:03:51.694Z,101846.09
2023-01-26T23:06:21.216Z,101837.78
2023-01-26T23:08:48.717Z,101837.63
2023-01-26T23:11:17.619Z,101839.13
2023-01-26T23:13:45.928Z,101830.50
2023-01-26T23:16:13.800Z,101836.47
2023-01-26T23:18:42.021Z,101831.47
2023-01-26T23:21:10.358Z,101838.81
2023-01-26T23:23:39.968Z,101833.31
2023-01-26T23:26:07.605Z,101839.28
2023-01-26T23:28:36.858Z,101831.81
2023-01-26T23:31:04.452Z,101828.00
2023-01-26T23:33:33.358Z,101836.59
2023-01-26T23:36:00.872Z,101841.13
2023-01-26T23:38:29.508Z,101840.13
2023-01-26T23:41:00.323Z,101853.19
2023-01-26T23:43:27.963Z,101850.56
2023-01-26T23:45:56.388Z,101850.09
2023-01-26T23:48:24.467Z,101837.63
2023-01-26T23:50:56.094Z,101843.41
2023-01-26T23:53:24.047Z,101840.13
2023-01-26T23:55:51.601Z,101844.59
2023-01-26T23:58:20.803Z,101840.13
